Pagina principale
METAR-TAF:

METAR-TAF

Aeroporti :

Alpnach, Svizzera

latitudine: 46-56-19N, longitudine: 8-17-03E, altezza: 440 m

Osservazione

Il bollettino è stato emesso 31 minuti fa, alle 03:50 UTC
Vento 14 kt da nord-est, variando fra nord e est/nord-est
Temperature 7°C
Umidità 81%
Pressione 1030 hPa
Visibilità 10 km o più
Nuvoloso ad un'altezza di 1500 ft
Cielo coperto ad un'altezza di 1700 ft

METAR: LSMA 270350Z AUTO 05014KT 360V070 9999NDV BKN015 OVC017 07/04 Q1030 RMK

Ora: 05:21 (04:21 UTC)


TAF: mancante

Osservazioni e previsioni meteorologiche di più di 4000 aeroporti (messaggi METAR e TAF).

Le stazioni disponibili sono rappresentate dai dischi gialli e rossi sulla carta.

Puntare il mouse per vedere il nome della stazione.

Clicca sopra per visualizzare le osservazioni e previsioni meteorologiche.

Per cambiare la mappa : fare clic sui pulsanti verdi con una croce nera per ingrandire, il pulsante verde con un trattino per diminuire, o sulla freccia verde per le mappe adiacenti.


METAR-TAF: